Time;durP1;ratioP1;P1;durP2;ratioP2;P2;SDS_P1;SDS_P2;PMS_P1;PMS_P2;Temp;Humidity;BMP_temperature;BMP_pressure;BME280_temperature;BME280_humidity;BME280_pressure;Samples;Min_cycle;Max_cycle;Signal;HPM_P1;HPM_P2
2021/04/03 00:00:49;;;;;;;23.73;6.05;;;;;;;9.69;59.15;102463.19;4408652;32;20134;-73
2021/04/03 00:03:17;;;;;;;20.75;5.60;;;;;;;9.69;59.33;102468.81;4411220;32;20138;-73
2021/04/03 00:05:43;;;;;;;25.73;5.55;;;;;;;9.65;59.42;102458.75;4411014;32;20079;-73
2021/04/03 00:08:11;;;;;;;21.77;5.97;;;;;;;9.59;59.53;102461.13;4407442;32;20034;-73
2021/04/03 00:10:48;;;;;;;21.17;6.22;;;;;;;9.56;59.50;102461.06;4406870;32;20064;-74
2021/04/03 00:13:16;;;;;;;30.75;6.30;;;;;;;9.45;60.05;102461.00;4406221;32;20092;-73
2021/04/03 00:15:42;;;;;;;24.98;5.87;;;;;;;9.40;60.01;102466.19;4412647;32;20408;-73
2021/04/03 00:18:08;;;;;;;20.00;5.90;;;;;;;9.33;60.22;102464.09;4408880;32;20140;-72
2021/04/03 00:20:35;;;;;;;22.08;5.35;;;;;;;9.31;60.29;102472.12;4408475;32;20102;-73
2021/04/03 00:23:03;;;;;;;16.77;5.10;;;;;;;9.25;60.01;102476.50;4406950;32;20427;-72
2021/04/03 00:25:30;;;;;;;26.10;6.00;;;;;;;9.29;59.85;102477.31;4410525;32;20203;-73
2021/04/03 00:27:56;;;;;;;23.52;5.37;;;;;;;9.07;60.40;102460.66;4410964;32;20030;-73
2021/04/03 00:30:23;;;;;;;29.10;6.05;;;;;;;8.96;60.73;102471.00;4406177;32;20422;-73
2021/04/03 00:32:52;;;;;;;23.60;5.07;;;;;;;8.79;61.23;102464.00;4406772;32;20085;-72
2021/04/03 00:35:22;;;;;;;22.35;5.47;;;;;;;8.65;61.91;102468.66;4408294;32;20526;-73
2021/04/03 00:37:49;;;;;;;17.40;5.43;;;;;;;8.66;61.81;102467.44;4409896;32;20157;-72
2021/04/03 00:40:20;;;;;;;28.12;5.95;;;;;;;8.47;62.02;102465.62;4408609;32;20083;-73
2021/04/03 00:42:47;;;;;;;24.10;6.10;;;;;;;8.41;62.30;102460.75;4408895;32;20863;-72
2021/04/03 00:45:14;;;;;;;22.45;5.12;;;;;;;8.36;62.52;102469.47;4408489;32;20027;-72
2021/04/03 00:47:41;;;;;;;30.98;5.43;;;;;;;8.22;63.01;102450.47;4411377;32;20100;-73
2021/04/03 00:50:09;;;;;;;23.65;4.90;;;;;;;8.17;63.27;102459.22;4406029;32;20450;-72
2021/04/03 00:52:35;;;;;;;25.37;5.65;;;;;;;8.12;63.48;102453.94;4406728;32;20069;-73
2021/04/03 00:55:04;;;;;;;22.15;5.57;;;;;;;8.03;64.04;102437.41;4411503;32;20038;-72
2021/04/03 00:57:30;;;;;;;22.55;4.78;;;;;;;7.94;64.45;102436.87;4409461;32;20107;-72
2021/04/03 00:59:58;;;;;;;24.45;5.60;;;;;;;7.92;64.38;102438.44;4410544;32;20143;-73
2021/04/03 01:02:24;;;;;;;27.55;5.20;;;;;;;7.90;64.68;102429.59;4409307;32;20194;-72
2021/04/03 01:04:49;;;;;;;29.17;5.68;;;;;;;7.89;65.03;102444.81;4407575;32;20789;-74
2021/04/03 01:07:15;;;;;;;28.40;5.07;;;;;;;7.86;65.52;102440.75;4406371;32;20136;-73
2021/04/03 01:09:41;;;;;;;20.27;4.65;;;;;;;7.99;65.10;102425.34;4407271;32;20469;-71
2021/04/03 01:12:31;;;;;;;24.65;5.93;;;;;;;8.06;65.15;102433.00;4409433;32;20081;-73
2021/04/03 01:18:12;;;;;;;22.08;5.65;;;;;;;8.64;64.18;102426.59;3954386;32;15777456;-74
2021/04/03 01:20:48;;;;;;;23.38;5.97;;;;;;;8.66;64.13;102425.34;4436465;32;20068;-75
2021/04/03 01:26:30;;;;;;;31.40;7.60;;;;;;;8.50;65.10;102425.56;3984457;32;15023127;-73
2021/04/03 01:29:14;;;;;;;24.00;5.60;;;;;;;8.50;65.10;102425.56;4439786;32;20140;-73
2021/04/03 01:31:40;;;;;;;23.17;5.07;;;;;;;7.92;66.14;102424.44;4439030;32;20092;-73
2021/04/03 01:34:12;;;;;;;21.23;5.70;;;;;;;7.84;66.16;102419.91;4439163;32;20063;-73
2021/04/03 01:36:42;;;;;;;22.30;4.28;;;;;;;7.81;66.33;102421.47;4439161;32;20093;-74
2021/04/03 01:39:12;;;;;;;17.65;4.10;;;;;;;7.79;65.91;102423.03;4438388;32;20059;-72
2021/04/03 01:41:41;;;;;;;24.40;4.68;;;;;;;7.86;65.75;102423.16;4438876;32;20060;-74
2021/04/03 01:44:10;;;;;;;20.37;4.37;;;;;;;7.81;65.55;102421.47;4439810;32;20041;-73
2021/04/03 01:46:37;;;;;;;22.45;4.10;;;;;;;7.68;65.94;102427.69;4439839;32;20060;-74
2021/04/03 01:49:09;;;;;;;19.35;3.97;;;;;;;7.72;65.34;102425.72;4436644;32;20068;-74
2021/04/03 01:51:36;;;;;;;24.02;4.47;;;;;;;7.75;65.23;102422.16;4440703;32;20053;-72
2021/04/03 01:54:09;;;;;;;33.10;5.15;;;;;;;7.94;64.49;102422.03;4438221;32;20030;-73
2021/04/03 01:56:37;;;;;;;29.73;4.60;;;;;;;7.95;63.85;102423.66;4439036;32;20041;-73
2021/04/03 01:59:05;;;;;;;25.40;4.22;;;;;;;8.16;63.64;102423.91;4437203;32;20083;-73
2021/04/03 02:01:34;;;;;;;28.45;4.55;;;;;;;8.04;63.82;102421.38;4433830;32;20010;-73
2021/04/03 02:04:00;;;;;;;26.85;4.15;;;;;;;8.11;63.74;102427.88;4425689;32;20096;-73
2021/04/03 02:06:26;;;;;;;25.67;5.07;;;;;;;8.02;64.09;102426.56;4424437;32;20073;-73
2021/04/03 02:08:53;;;;;;;26.60;4.43;;;;;;;8.31;63.06;102436.19;4422713;32;20122;-73
2021/04/03 02:11:20;;;;;;;28.17;4.60;;;;;;;8.16;63.24;102432.34;4422611;32;20030;-74
2021/04/03 02:13:46;;;;;;;25.98;4.72;;;;;;;8.28;62.92;102436.94;4422131;32;20519;-73
2021/04/03 02:16:13;;;;;;;26.42;5.03;;;;;;;8.34;62.44;102421.38;4424461;32;20127;-73
2021/04/03 02:18:39;;;;;;;27.48;4.20;;;;;;;8.18;62.70;102421.56;4425291;32;20067;-74
2021/04/03 02:21:07;;;;;;;21.48;3.92;;;;;;;8.08;62.90;102413.81;4422367;32;20108;-74
2021/04/03 02:23:34;;;;;;;20.37;4.07;;;;;;;7.93;63.31;102401.62;4422828;32;20526;-73
2021/04/03 02:25:59;;;;;;;28.70;4.43;;;;;;;7.88;63.59;102412.34;4424190;32;20083;-74
2021/04/03 02:28:25;;;;;;;20.17;4.75;;;;;;;7.81;63.71;102406.66;4424590;32;20041;-73
2021/04/03 02:30:53;;;;;;;24.80;5.10;;;;;;;7.73;63.77;102402.13;4425041;32;20052;-73
2021/04/03 02:33:19;;;;;;;24.90;4.43;;;;;;;7.64;64.16;102402.41;4423326;32;20050;-73
2021/04/03 02:35:45;;;;;;;30.65;4.93;;;;;;;7.55;64.39;102399.06;4418088;32;20506;-72
2021/04/03 02:38:13;;;;;;;23.02;4.12;;;;;;;7.57;64.07;102404.28;4415426;32;20064;-73
2021/04/03 02:40:39;;;;;;;28.38;4.78;;;;;;;7.55;64.41;102410.28;4413729;32;20093;-73
2021/04/03 02:45:47;;;;;;;23.50;4.47;;;;;;;8.03;63.43;102414.16;3957022;32;15724645;-72
2021/04/03 02:48:17;;;;;;;25.05;4.75;;;;;;;8.03;63.43;102414.16;4434265;32;20029;-72
2021/04/03 02:50:45;;;;;;;25.37;3.85;;;;;;;7.70;64.00;102403.69;4432686;32;20065;-72
2021/04/03 02:53:13;;;;;;;22.80;3.40;;;;;;;7.78;63.20;102399.00;4433184;32;20085;-72
2021/04/03 02:55:47;;;;;;;19.12;3.60;;;;;;;7.81;62.71;102401.84;4435229;32;20018;-72
2021/04/03 02:58:17;;;;;;;25.23;4.28;;;;;;;7.85;62.42;102404.69;4436673;32;20094;-71
2021/04/03 03:00:45;;;;;;;21.90;3.17;;;;;;;7.92;62.07;102396.41;4419594;32;20026;-73
2021/04/03 03:03:11;;;;;;;17.02;3.55;;;;;;;7.99;61.79;102405.72;4425825;32;20275;-73
2021/04/03 03:05:39;;;;;;;21.30;3.33;;;;;;;8.03;61.57;102416.94;4409954;32;20034;-71
2021/04/03 03:08:06;;;;;;;28.73;3.30;;;;;;;8.07;61.52;102407.41;4426284;32;20065;-72
2021/04/03 03:10:33;;;;;;;27.08;3.80;;;;;;;8.12;61.22;102406.25;4425365;32;20383;-72
2021/04/03 03:13:00;;;;;;;23.87;3.75;;;;;;;8.10;61.14;102408.63;4424300;32;20083;-72
2021/04/03 03:15:30;;;;;;;24.48;4.12;;;;;;;8.21;60.83;102406.78;4423725;32;20107;-71
2021/04/03 03:17:56;;;;;;;23.00;3.80;;;;;;;8.33;60.28;102411.34;4427024;32;20125;-72
2021/04/03 03:20:22;;;;;;;23.62;3.92;;;;;;;8.40;60.37;102408.63;4423533;32;20029;-72
2021/04/03 03:22:48;;;;;;;28.42;4.43;;;;;;;8.35;60.25;102386.53;4425657;32;20064;-72
2021/04/03 03:25:14;;;;;;;20.50;3.87;;;;;;;8.34;60.67;102407.38;4425865;32;20077;-72
2021/04/03 03:27:44;;;;;;;24.27;4.28;;;;;;;8.39;60.48;102407.81;4423882;32;20059;-72
2021/04/03 03:30:14;;;;;;;28.55;3.80;;;;;;;8.43;60.11;102413.47;4422638;32;21501;-72
2021/04/03 03:32:40;;;;;;;26.67;4.37;;;;;;;8.58;59.61;102407.62;4426405;32;20022;-72
2021/04/03 03:35:07;;;;;;;19.40;4.03;;;;;;;8.56;59.81;102415.63;4422431;32;20495;-72
2021/04/03 03:37:34;;;;;;;22.67;3.60;;;;;;;8.70;59.87;102412.16;4420919;32;20088;-72
2021/04/03 03:40:00;;;;;;;26.92;4.10;;;;;;;8.72;59.81;102412.59;4422276;32;20018;-72
2021/04/03 03:42:27;;;;;;;25.83;3.72;;;;;;;8.80;59.71;102411.47;4425354;32;20033;-72
2021/04/03 03:44:53;;;;;;;25.60;4.35;;;;;;;8.86;59.39;102426.75;4421768;32;20053;-73
2021/04/03 03:47:19;;;;;;;30.77;4.18;;;;;;;8.87;59.49;102420.75;4421102;32;20516;-72
2021/04/03 03:49:45;;;;;;;18.35;3.78;;;;;;;8.88;59.47;102419.56;4422861;32;20070;-72
2021/04/03 03:52:10;;;;;;;29.05;3.83;;;;;;;8.96;59.15;102428.88;4423048;32;20029;-73
2021/04/03 03:54:36;;;;;;;22.35;4.15;;;;;;;9.22;58.54;102435.12;4425794;32;20034;-72
2021/04/03 03:57:03;;;;;;;29.02;4.47;;;;;;;9.08;58.68;102429.38;4416267;32;20067;-72
2021/04/03 03:59:29;;;;;;;25.50;3.65;;;;;;;9.00;58.39;102422.09;4416543;32;20431;-73
2021/04/03 04:01:55;;;;;;;28.60;4.50;;;;;;;8.99;58.45;102417.66;4413706;32;20152;-72
2021/04/03 04:04:21;;;;;;;16.30;3.17;;;;;;;9.04;58.39;102417.31;4415286;32;20438;-72
2021/04/03 04:06:46;;;;;;;23.90;5.00;;;;;;;9.00;58.23;102416.47;4414828;32;20584;-72
2021/04/03 04:09:12;;;;;;;18.62;3.50;;;;;;;8.95;57.91;102413.19;4412976;32;20419;-74
2021/04/03 04:11:39;;;;;;;32.65;4.05;;;;;;;9.10;57.50;102415.75;4414347;32;20101;-74
2021/04/03 04:14:04;;;;;;;27.25;4.68;;;;;;;8.94;57.30;102414.41;4413090;32;20478;-73
2021/04/03 04:16:30;;;;;;;21.75;3.90;;;;;;;8.95;56.72;102422.44;4415383;32;20037;-73
2021/04/03 04:18:56;;;;;;;26.05;3.95;;;;;;;8.89;57.09;102420.34;4412868;32;20035;-73
2021/04/03 04:21:24;;;;;;;28.98;3.75;;;;;;;8.71;57.23;102419.41;4413126;32;20378;-73
2021/04/03 04:23:50;;;;;;;21.85;3.28;;;;;;;8.79;57.15;102421.88;4411965;32;20468;-72
2021/04/03 04:26:16;;;;;;;21.05;3.17;;;;;;;8.82;57.17;102423.91;4415942;32;20037;-72
2021/04/03 04:28:42;;;;;;;27.27;4.20;;;;;;;8.74;57.29;102429.84;4415836;32;20095;-73
2021/04/03 04:31:07;;;;;;;19.65;3.70;;;;;;;8.82;57.05;102431.53;4412637;32;20046;-72
2021/04/03 04:33:33;;;;;;;17.83;3.87;;;;;;;8.84;56.86;102429.94;4415217;32;20046;-72
2021/04/03 04:35:59;;;;;;;27.25;4.57;;;;;;;8.95;56.34;102435.66;4416134;32;20624;-73
2021/04/03 04:38:25;;;;;;;21.33;4.62;;;;;;;8.88;56.62;102441.22;4409332;32;20078;-72
2021/04/03 04:40:50;;;;;;;17.70;3.70;;;;;;;8.96;56.21;102448.53;4414741;32;20483;-71
2021/04/03 04:43:20;;;;;;;23.35;3.95;;;;;;;9.05;56.14;102451.81;4412430;32;20760;-72
2021/04/03 04:45:46;;;;;;;24.65;3.58;;;;;;;9.00;56.28;102449.34;4413141;32;20038;-73
2021/04/03 04:48:11;;;;;;;23.48;3.95;;;;;;;8.96;56.50;102448.53;4414438;32;20114;-72
2021/04/03 04:50:37;;;;;;;27.73;3.80;;;;;;;8.94;55.94;102450.91;4412506;32;20041;-74
2021/04/03 04:53:03;;;;;;;19.45;3.40;;;;;;;8.92;55.48;102445.66;4412504;32;20100;-74
2021/04/03 04:55:29;;;;;;;25.55;4.68;;;;;;;8.92;55.35;102453.28;4415114;32;20485;-73
2021/04/03 04:57:55;;;;;;;20.37;3.72;;;;;;;8.92;55.04;102448.47;4413269;32;20149;-72
2021/04/03 05:00:21;;;;;;;22.75;4.15;;;;;;;8.79;54.94;102438.72;4413175;32;20539;-73
2021/04/03 05:02:46;;;;;;;38.20;6.87;;;;;;;8.80;54.52;102445.16;4413795;32;20097;-74
2021/04/03 05:05:12;;;;;;;44.97;8.80;;;;;;;8.95;54.17;102444.09;4413824;32;20085;-72
2021/04/03 05:07:38;;;;;;;55.72;11.93;;;;;;;8.89;53.84;102454.03;4412974;32;20087;-72
2021/04/03 05:10:04;;;;;;;55.78;11.82;;;;;;;8.88;53.59;102450.47;4414038;32;20081;-72
2021/04/03 05:12:30;;;;;;;58.75;13.48;;;;;;;8.96;53.65;102448.53;4413370;32;20455;-73
2021/04/03 05:14:55;;;;;;;46.95;9.93;;;;;;;9.02;53.41;102456.19;4411720;32;21076;-72
2021/04/03 05:17:22;;;;;;;42.00;10.40;;;;;;;8.96;53.28;102462.56;4398873;32;20085;-72
2021/04/03 05:19:48;;;;;;;66.28;15.07;;;;;;;9.03;53.21;102466.25;4412690;32;20034;-72
2021/04/03 05:22:14;;;;;;;83.32;18.40;;;;;;;9.09;53.40;102464.72;4414643;32;20101;-73
2021/04/03 05:24:40;;;;;;;66.28;14.18;;;;;;;8.99;53.72;102461.78;4411890;32;20053;-72
2021/04/03 05:27:06;;;;;;;50.58;11.93;;;;;;;9.10;53.68;102465.50;4413489;32;20038;-72
2021/04/03 05:29:33;;;;;;;41.40;7.90;;;;;;;9.17;53.63;102473.97;4409984;32;20042;-75
2021/04/03 05:31:59;;;;;;;29.65;5.05;;;;;;;9.15;53.97;102479.19;4414610;32;20065;-72
2021/04/03 05:34:25;;;;;;;29.08;4.32;;;;;;;9.19;54.12;102480.03;4415287;32;20457;-73
2021/04/03 05:36:50;;;;;;;35.40;6.03;;;;;;;9.22;54.43;102485.69;4413321;32;20516;-73
2021/04/03 05:39:16;;;;;;;34.85;5.22;;;;;;;9.20;54.66;102490.87;4411894;32;20517;-72
2021/04/03 05:41:42;;;;;;;24.83;5.12;;;;;;;9.28;54.89;102483.31;4413144;32;20491;-73
2021/04/03 05:44:10;;;;;;;25.88;5.68;;;;;;;9.34;54.85;102487.41;4410780;32;20033;-73
2021/04/03 05:46:39;;;;;;;23.30;4.22;;;;;;;9.25;55.49;102482.09;4414838;32;20042;-72
2021/04/03 05:49:05;;;;;;;23.87;3.65;;;;;;;9.36;55.71;102485.81;4412713;32;20430;-73
2021/04/03 05:51:30;;;;;;;25.37;3.62;;;;;;;9.37;55.84;102489.44;4411693;32;20073;-73
2021/04/03 05:53:59;;;;;;;28.85;4.62;;;;;;;9.31;55.99;102493.78;4412244;32;20122;-74
2021/04/03 05:56:27;;;;;;;23.10;3.70;;;;;;;9.57;55.41;102485.97;4413123;32;20080;-73
2021/04/03 05:58:52;;;;;;;21.75;3.65;;;;;;;9.32;56.23;102484.97;4412214;32;20069;-73
2021/04/03 06:01:18;;;;;;;29.27;3.92;;;;;;;9.33;56.22;102497.81;4413961;32;20064;-73
2021/04/03 06:03:43;;;;;;;26.30;4.53;;;;;;;9.37;56.42;102493.06;4411595;32;20080;-73
2021/04/03 06:06:09;;;;;;;24.80;4.65;;;;;;;9.36;56.25;102501.88;4414136;32;20453;-73
2021/04/03 06:08:36;;;;;;;21.80;3.78;;;;;;;9.45;56.23;102502.34;4412801;32;20068;-73
2021/04/03 06:11:11;;;;;;;23.77;4.30;;;;;;;9.48;55.61;102501.59;4412057;32;20026;-73
2021/04/03 06:13:39;;;;;;;26.83;4.10;;;;;;;9.50;55.67;102502.81;4414515;32;20098;-73
2021/04/03 06:16:27;;;;;;;31.58;4.18;;;;;;;9.53;55.71;102506.81;4413561;32;20030;-73
2021/04/03 06:19:18;;;;;;;21.25;4.60;;;;;;;9.58;55.28;102510.06;4412012;32;20101;-73
2021/04/03 06:22:00;;;;;;;18.17;3.50;;;;;;;9.53;55.14;102509.62;4398871;32;20450;-73
2021/04/03 06:29:46;;;;;;;28.85;5.72;;;;;;;9.74;53.95;102521.87;3985114;32;15023954;-74
2021/04/03 06:34:57;;;;;;;23.35;3.62;;;;;;;10.20;51.51;102521.37;3973333;32;15022990;-72
2021/04/03 06:37:27;;;;;;;18.25;3.42;;;;;;;10.20;51.51;102521.37;4429311;32;20034;-73
2021/04/03 06:40:11;;;;;;;29.20;5.30;;;;;;;9.75;51.32;102529.09;4428585;32;20045;-74
2021/04/03 06:48:01;;;;;;;45.15;9.65;;;;;;;10.46;49.50;102533.19;3985663;32;15022921;-73
2021/04/03 06:50:29;;;;;;;40.00;8.32;;;;;;;10.46;49.50;102533.19;4441210;32;20402;-73
2021/04/03 06:52:55;;;;;;;22.42;4.75;;;;;;;9.86;50.27;102532.00;4439208;32;20025;-73
2021/04/03 06:55:23;;;;;;;31.70;5.43;;;;;;;9.81;50.22;102533.16;4438408;32;20366;-73
2021/04/03 06:57:50;;;;;;;28.90;5.25;;;;;;;9.74;50.17;102540.75;4439223;32;20049;-73
2021/04/03 07:00:18;;;;;;;28.35;5.70;;;;;;;9.73;50.41;102545.53;4437321;32;20038;-74
2021/04/03 07:05:31;;;;;;;33.78;6.95;;;;;;;9.92;50.12;102542.47;3986236;32;15022492;-73
2021/04/03 07:07:59;;;;;;;31.08;8.15;;;;;;;9.87;50.29;102539.22;4439200;32;20076;-72
2021/04/03 07:10:27;;;;;;;38.20;7.65;;;;;;;10.00;49.96;102537.72;4439365;32;20060;-75
2021/04/03 07:12:55;;;;;;;27.02;4.53;;;;;;;10.12;49.73;102539.44;4438769;32;20041;-73
2021/04/03 07:15:22;;;;;;;22.30;3.53;;;;;;;10.15;49.45;102544.28;4438720;32;20445;-73
2021/04/03 07:17:49;;;;;;;19.15;3.72;;;;;;;10.09;49.21;102549.47;4436282;32;20080;-73
2021/04/03 07:20:17;;;;;;;21.35;3.33;;;;;;;10.19;49.43;102548.75;4437033;32;20065;-73
2021/04/03 07:22:47;;;;;;;27.60;4.30;;;;;;;10.03;49.56;102545.37;4439401;32;20059;-74
2021/04/03 07:25:14;;;;;;;26.15;3.22;;;;;;;10.07;49.58;102547.03;4441374;32;20065;-73
2021/04/03 07:27:43;;;;;;;22.70;3.50;;;;;;;10.17;49.33;102547.50;4440943;32;20691;-73
2021/04/03 07:30:10;;;;;;;19.42;3.72;;;;;;;10.19;48.96;102551.56;4439067;32;20122;-74
2021/04/03 07:32:40;;;;;;;18.92;3.92;;;;;;;10.14;49.23;102549.09;4440405;32;20033;-72
2021/04/03 07:35:24;;;;;;;22.80;3.53;;;;;;;10.27;48.77;102553.19;4439235;32;20456;-74
2021/04/03 07:37:52;;;;;;;21.92;3.50;;;;;;;10.28;48.57;102551.19;4441958;32;20081;-73
2021/04/03 07:43:02;;;;;;;31.05;4.45;;;;;;;11.12;46.57;102560.00;3985500;32;15021971;-73
2021/04/03 07:48:15;;;;;;;19.12;3.65;;;;;;;10.69;47.15;102555.44;3983999;32;15025825;-74
2021/04/03 07:53:34;;;;;;;27.02;5.60;;;;;;;11.21;45.47;102568.91;3956230;32;15728669;-74
2021/04/03 07:56:01;;;;;;;20.77;4.10;;;;;;;11.21;45.47;102568.91;4432113;32;20029;-74
2021/04/03 07:58:28;;;;;;;17.52;4.62;;;;;;;11.00;45.30;102557.56;4432509;32;20045;-74
2021/04/03 08:00:55;;;;;;;18.52;3.25;;;;;;;11.08;45.46;102547.94;4432605;32;20092;-74
2021/04/03 08:03:26;;;;;;;20.37;3.17;;;;;;;11.08;45.18;102553.56;4436340;32;20088;-73
2021/04/03 08:05:59;;;;;;;18.02;3.10;;;;;;;10.81;45.64;102561.53;4434376;32;20467;-73
2021/04/03 08:08:27;;;;;;;22.45;3.78;;;;;;;10.91;45.34;102551.47;4431394;32;20104;-73
2021/04/03 08:13:48;;;;;;;25.95;4.97;;;;;;;11.43;44.58;102560.09;3985195;32;15022331;-73
2021/04/03 08:16:15;;;;;;;19.45;3.22;;;;;;;11.43;44.58;102560.09;4434346;32;20060;-74
2021/04/03 08:18:43;;;;;;;24.30;3.95;;;;;;;11.11;44.94;102564.81;4436655;32;20477;-73
2021/04/03 08:21:10;;;;;;;20.00;3.65;;;;;;;11.14;45.02;102564.03;4434385;32;20117;-74
2021/04/03 08:23:42;;;;;;;24.83;4.55;;;;;;;11.32;44.84;102570.53;4431794;32;20414;-73
2021/04/03 08:26:10;;;;;;;28.30;5.87;;;;;;;11.38;44.34;102566.09;4433390;32;20033;-73
2021/04/03 08:28:36;;;;;;;34.22;7.45;;;;;;;11.58;44.15;102561.72;4433986;32;20049;-73
2021/04/03 08:31:24;;;;;;;36.75;7.45;;;;;;;11.68;44.05;102560.94;4434587;32;20022;-74
2021/04/03 08:33:52;;;;;;;21.08;4.28;;;;;;;11.70;43.77;102564.19;4433374;32;20134;-73
2021/04/03 08:36:25;;;;;;;28.90;4.37;;;;;;;11.71;44.00;102562.13;4444322;32;20076;-73
2021/04/03 08:38:53;;;;;;;18.30;4.12;;;;;;;11.63;44.06;102572.59;4431341;32;20113;-73
2021/04/03 08:41:23;;;;;;;25.70;4.10;;;;;;;11.84;43.76;102568.97;4435329;32;20073;-73
2021/04/03 08:43:50;;;;;;;23.65;3.87;;;;;;;11.86;43.37;102580.69;4434240;32;20073;-73
2021/04/03 08:46:17;;;;;;;14.45;3.00;;;;;;;11.91;42.92;102574.66;4438226;32;20068;-73
2021/04/03 08:48:45;;;;;;;15.75;2.95;;;;;;;12.08;42.88;102568.16;4433757;32;20457;-73
2021/04/03 08:51:12;;;;;;;18.55;3.15;;;;;;;12.28;42.58;102577.84;4435295;32;20041;-73
2021/04/03 08:56:25;;;;;;;11.88;2.67;;;;;;;12.79;41.80;102589.37;3988383;32;15022308;-74
2021/04/03 08:58:52;;;;;;;14.23;2.92;;;;;;;12.79;41.80;102589.37;4437311;32;20080;-74
2021/04/03 09:01:19;;;;;;;14.10;2.67;;;;;;;12.43;42.31;102585.06;4430134;32;20141;-74
2021/04/03 09:03:48;;;;;;;25.60;3.72;;;;;;;12.44;42.34;102592.31;4421385;32;20030;-73
2021/04/03 09:06:14;;;;;;;14.02;3.37;;;;;;;12.21;42.88;102606.06;4420782;32;20113;-74
2021/04/03 09:08:40;;;;;;;13.30;3.22;;;;;;;12.31;42.65;102593.97;4422597;32;20220;-74
2021/04/03 09:11:05;;;;;;;24.02;5.32;;;;;;;12.36;42.75;102593.53;4417802;32;20033;-73
2021/04/03 09:13:34;;;;;;;28.52;4.85;;;;;;;12.34;42.86;102603.63;4421755;32;20038;-73
2021/04/03 09:16:09;;;;;;;27.60;4.80;;;;;;;12.47;42.66;102605.63;4426492;32;20038;-74
2021/04/03 09:18:35;;;;;;;20.45;4.72;;;;;;;12.54;42.45;102602.78;4418222;32;20049;-73
2021/04/03 09:21:01;;;;;;;21.80;4.50;;;;;;;12.52;42.69;102595.94;4421050;32;20089;-74
2021/04/03 09:23:26;;;;;;;22.65;4.97;;;;;;;12.44;42.71;102586.66;4424988;32;20060;-73
2021/04/03 09:26:07;;;;;;;22.58;5.70;;;;;;;12.54;42.61;102594.31;4419342;32;20131;-74
2021/04/03 09:31:11;;;;;;;24.58;5.30;;;;;;;12.91;42.24;102590.94;3982785;32;15023455;-74
2021/04/03 09:33:46;;;;;;;15.63;3.75;;;;;;;12.93;41.97;102589.34;4440108;32;20059;-74
2021/04/03 09:36:14;;;;;;;25.25;6.18;;;;;;;13.03;41.81;102588.50;4439179;32;20104;-73
2021/04/03 09:38:41;;;;;;;20.65;4.75;;;;;;;13.02;42.07;102591.75;4437420;32;20103;-74
2021/04/03 09:41:28;;;;;;;19.20;4.35;;;;;;;12.74;42.26;102589.81;4431792;32;20076;-74
2021/04/03 09:43:54;;;;;;;22.13;3.70;;;;;;;12.80;41.96;102588.19;4439357;32;20139;-74
2021/04/03 09:46:21;;;;;;;19.83;4.25;;;;;;;12.82;42.13;102582.13;4434896;32;20167;-73
2021/04/03 09:48:47;;;;;;;34.25;5.55;;;;;;;12.85;42.21;102582.09;4439021;32;20429;-73
2021/04/03 09:51:13;;;;;;;25.60;5.60;;;;;;;12.91;42.22;102588.94;4437455;32;20462;-73
2021/04/03 09:53:38;;;;;;;19.17;4.50;;;;;;;13.12;41.89;102588.88;4437184;32;20045;-73
2021/04/03 09:56:05;;;;;;;22.27;3.67;;;;;;;13.16;41.54;102583.19;4441429;32;20025;-73
2021/04/03 09:58:31;;;;;;;29.42;5.62;;;;;;;13.32;41.31;102587.13;4441409;32;20079;-73
2021/04/03 10:00:57;;;;;;;18.50;4.37;;;;;;;13.31;41.30;102594.00;4435577;32;20030;-73
2021/04/03 10:03:23;;;;;;;23.65;4.07;;;;;;;13.57;40.75;102587.75;4423166;32;20104;-73
2021/04/03 10:05:49;;;;;;;28.17;5.75;;;;;;;13.61;40.70;102593.41;4421986;32;20038;-73
2021/04/03 10:08:15;;;;;;;21.50;4.25;;;;;;;13.97;40.20;102589.09;4422486;32;20463;-73
2021/04/03 10:10:42;;;;;;;20.50;4.35;;;;;;;14.21;39.72;102593.72;4421075;32;20038;-72
2021/04/03 10:13:09;;;;;;;16.23;3.22;;;;;;;14.00;39.45;102596.75;4423443;32;20077;-72
2021/04/03 10:15:35;;;;;;;22.87;3.60;;;;;;;14.21;39.01;102596.56;4422700;32;20085;-73
2021/04/03 10:18:02;;;;;;;14.73;2.92;;;;;;;14.53;38.59;102596.25;4425376;32;20526;-73
2021/04/03 10:20:27;;;;;;;18.27;3.50;;;;;;;14.73;38.38;102591.59;4424025;32;20081;-74
2021/04/03 10:22:53;;;;;;;23.30;5.00;;;;;;;14.49;38.49;102581.31;4425506;32;20112;-73
2021/04/03 10:25:18;;;;;;;25.08;5.70;;;;;;;14.63;38.42;102581.97;4423215;32;20056;-73
2021/04/03 10:27:44;;;;;;;26.90;5.68;;;;;;;14.78;37.91;102580.56;4424654;32;20168;-73
2021/04/03 10:30:12;;;;;;;25.25;6.57;;;;;;;14.57;38.40;102588.53;4424980;32;20119;-73
2021/04/03 10:32:38;;;;;;;21.73;4.57;;;;;;;14.87;38.12;102583.69;4424427;32;20381;-74
2021/04/03 10:35:05;;;;;;;21.95;4.07;;;;;;;14.96;37.60;102581.16;4421853;32;20075;-74
2021/04/03 10:37:31;;;;;;;15.68;3.10;;;;;;;14.98;37.82;102583.56;4420733;32;20149;-73
2021/04/03 10:39:56;;;;;;;12.80;3.40;;;;;;;14.70;37.87;102579.03;4422759;32;20046;-73
2021/04/03 10:42:22;;;;;;;21.60;5.35;;;;;;;14.72;38.09;102581.44;4412563;32;20021;-73
2021/04/03 10:44:48;;;;;;;18.02;4.50;;;;;;;14.80;37.75;102583.81;4412278;32;20476;-73
2021/04/03 10:47:15;;;;;;;20.35;3.78;;;;;;;14.51;37.77;102573.22;4414885;32;20545;-73
2021/04/03 10:49:41;;;;;;;18.62;3.47;;;;;;;14.71;37.58;102577.03;4412770;32;20073;-74
2021/04/03 10:52:07;;;;;;;23.23;3.62;;;;;;;14.84;37.72;102569.56;4411248;32;20458;-74
2021/04/03 10:54:33;;;;;;;12.05;3.37;;;;;;;15.08;37.26;102579.78;4412073;32;20078;-73
2021/04/03 10:56:59;;;;;;;25.25;4.10;;;;;;;15.56;36.56;102583.97;4413907;32;20465;-73
2021/04/03 10:59:25;;;;;;;18.02;3.33;;;;;;;15.38;36.65;102571.28;4412832;32;20445;-73
2021/04/03 11:01:50;;;;;;;17.00;3.45;;;;;;;15.43;36.56;102573.63;4413381;32;20105;-73
2021/04/03 11:04:16;;;;;;;17.90;4.18;;;;;;;15.36;36.60;102570.88;4415476;32;20038;-73
2021/04/03 11:06:41;;;;;;;22.17;3.67;;;;;;;15.32;36.95;102581.47;4412062;32;20095;-73
2021/04/03 11:09:07;;;;;;;18.83;3.50;;;;;;;16.04;35.38;102575.06;4412478;32;20077;-73
2021/04/03 11:11:33;;;;;;;36.38;4.60;;;;;;;16.91;34.24;102569.75;4410813;32;20544;-73
2021/04/03 11:13:59;;;;;;;12.10;3.17;;;;;;;17.40;33.17;102571.50;4409017;32;20074;-73
2021/04/03 11:16:26;;;;;;;20.12;3.80;;;;;;;17.73;32.01;102572.37;4408768;32;20168;-74
2021/04/03 11:18:53;;;;;;;17.17;3.65;;;;;;;18.00;31.58;102567.22;4413234;32;20422;-73
2021/04/03 11:21:19;;;;;;;17.95;4.18;;;;;;;17.72;32.06;102571.59;4412638;32;20087;-74
2021/04/03 11:23:45;;;;;;;21.55;3.53;;;;;;;18.18;31.36;102575.28;4410816;32;20128;-72
2021/04/03 11:26:11;;;;;;;22.25;4.82;;;;;;;18.45;30.92;102584.38;4415508;32;20070;-74
2021/04/03 11:28:36;;;;;;;15.30;4.57;;;;;;;18.30;31.12;102581.09;4413242;32;20077;-73
2021/04/03 11:31:02;;;;;;;24.10;6.78;;;;;;;18.59;30.65;102576.22;4410575;32;20518;-73
2021/04/03 11:33:28;;;;;;;16.02;3.83;;;;;;;18.56;30.76;102570.62;4412852;32;20386;-73
2021/04/03 11:35:54;;;;;;;14.73;3.05;;;;;;;18.41;31.10;102577.97;4413321;32;20313;-72
2021/04/03 11:38:20;;;;;;;14.23;3.45;;;;;;;18.05;31.49;102563.84;4413753;32;20034;-73
2021/04/03 11:40:46;;;;;;;19.02;3.37;;;;;;;17.51;32.46;102565.59;4411281;32;20153;-73
2021/04/03 11:43:12;;;;;;;17.12;3.95;;;;;;;18.09;31.47;102573.09;4411997;32;20116;-73
2021/04/03 11:45:38;;;;;;;21.33;3.70;;;;;;;17.83;31.86;102566.41;4411735;32;20077;-73
2021/04/03 11:48:04;;;;;;;17.48;3.55;;;;;;;17.73;31.67;102566.69;4410142;32;20119;-75
2021/04/03 11:50:30;;;;;;;15.20;3.67;;;;;;;17.92;31.87;102569.44;4414318;32;20135;-73
2021/04/03 11:52:59;;;;;;;16.30;3.28;;;;;;;18.11;31.40;102564.91;4412355;32;20037;-73
2021/04/03 11:55:25;;;;;;;16.83;3.30;;;;;;;18.26;31.10;102571.84;4414116;32;20093;-73
2021/04/03 11:57:52;;;;;;;13.20;3.85;;;;;;;18.50;31.02;102566.72;4412747;32;20060;-75
2021/04/03 12:00:19;;;;;;;16.60;3.17;;;;;;;18.67;30.69;102569.06;4413621;32;20095;-73
2021/04/03 12:02:45;;;;;;;26.25;4.28;;;;;;;18.72;30.65;102559.94;4411706;32;20171;-73